Eelde, Netherlands

3:03 AM CEST on August 23, 2014 (GMT +0200)
Eelde | Change Station
CLOSE
Current Station
Airport
Location: Eelde,
Elevation: 13 ft
Nearby Weather Stations
Active Advisory: Thunderstorms nederlands:

Elev 13 ft 53.12 °N, 6.58 °E | Updated 8 minutes ago

Clear
Clear
46 °F
Feels Like 44 °F
N
6
Wind Variable Wind from SW

Today
High -- | Low -- °F
--% Chance of Precip.
Yesterday
High -- | Low -- °F
Precip. -- in
6:27 AM 8:43 PM
Waning Crescent, 6% visible
Pressure 29.83 in
Visibility 6.2 miles
Clouds
Windchill 44 °F
Dew Point 46 °F
Humidity 100%
Rainfall 0.00 in
Snow Depth Not available.
UV Not available.
Pollen Not available.
Air Quality Not available.
Flu Activity Not available.
METAR EHGG 230055Z AUTO 22005KT 9999 NSC 08/08 Q1010

More Conditions Fewer Conditions

Pressure 29.83 in
Visibility 6.2 miles
Clouds
Windchill 44 °F
Dew Point 46 °F
Humidity 100%
Rainfall 0.00 in
Snow Depth Not available.
UV Not available.
Pollen Not available.
Air Quality Not available.
Flu Activity Not available.
METAR EHGG 230055Z AUTO 22005KT 9999 NSC 08/08 Q1010

More Conditions Fewer Conditions

10-Day Weather Forecast

Almanac

Astronomy

Aug. 23, 2014 Rise Set
Actual Time 6:27 AM CEST 8:43 PM CEST
Civil Twilight 5:49 AM CEST 9:21 PM CEST
Nautical Twilight 5:01 AM CEST 10:09 PM CEST
Astronomical Twilight 4:05 AM CEST 11:04 PM CEST
Moon 4:22 AM CEST 7:22 PM CEST
Length of Visible Light 15h 31m
Length of Day
14h 16m
Tomorrow will be 3m 58s shorter.
Waning Crescent, 6% of the Moon is Illuminated
Aug 22
Waning Crescent
Aug 25
New
Sep 2
First Quarter
Sep 8
Full
Sep 15
Last Quarter

Yesterday's Extremes

Country Highs Country Lows

Community

WunderPhotos

Upload Photos

1,746,336 photos uploaded!

WunderBlogs® & News

Nearby

Snow Depth

Not available.

Earthquake Activity

City Distance Mag. Time & Date
No recent earthquake activity has been reported nearby.
Minimum magnitude displayed is 2.5.

Coastal Water Temperatures

Place Temperature
No Stations Reporting

Nearby Weather Stations